createdAt,value
2019-04-29T00:02:36.310Z,2.00
2019-04-29T00:05:23.806Z,2.08
2019-04-29T00:08:10.703Z,1.70
2019-04-29T00:10:57.867Z,2.02
2019-04-29T00:13:45.961Z,2.10
2019-04-29T00:16:34.896Z,1.98
2019-04-29T00:19:36.335Z,1.95
2019-04-29T00:22:23.997Z,1.47
2019-04-29T00:25:11.129Z,2.02
2019-04-29T00:27:58.282Z,1.95
2019-04-29T00:30:45.704Z,2.15
2019-04-29T00:33:33.271Z,2.25
2019-04-29T00:36:22.022Z,2.42
2019-04-29T00:39:23.056Z,1.92
2019-04-29T00:42:17.889Z,2.37
2019-04-29T00:45:07.060Z,1.98
2019-04-29T00:47:54.287Z,1.82
2019-04-29T00:50:41.423Z,1.67
2019-04-29T00:53:28.783Z,1.87
2019-04-29T00:56:16.070Z,1.90
2019-04-29T00:59:02.991Z,1.87
2019-04-29T01:01:49.916Z,1.47
2019-04-29T01:04:37.672Z,1.80
2019-04-29T01:07:25.076Z,1.70
2019-04-29T01:10:12.700Z,1.90
2019-04-29T01:12:59.780Z,1.98
2019-04-29T01:15:47.151Z,1.87
2019-04-29T01:18:34.139Z,2.05
2019-04-29T01:21:21.623Z,1.90
2019-04-29T01:24:08.443Z,2.30
2019-04-29T01:26:57.367Z,1.92
2019-04-29T01:29:44.519Z,1.80
2019-04-29T01:32:31.677Z,1.67
2019-04-29T01:35:18.976Z,1.82
2019-04-29T01:38:06.360Z,2.10
2019-04-29T01:41:04.459Z,1.80
2019-04-29T01:44:05.058Z,1.92
2019-04-29T01:46:52.137Z,1.47
2019-04-29T01:49:39.720Z,1.70
2019-04-29T01:52:27.201Z,2.30
2019-04-29T01:55:14.266Z,2.12
2019-04-29T01:58:01.419Z,1.62
2019-04-29T02:00:49.017Z,1.87
2019-04-29T02:03:36.032Z,1.77
2019-04-29T02:06:23.141Z,1.82
2019-04-29T02:09:12.103Z,1.90
2019-04-29T02:11:59.683Z,1.77
2019-04-29T02:14:46.833Z,1.55
2019-04-29T02:17:34.242Z,1.65
2019-04-29T02:20:21.797Z,1.80
2019-04-29T02:23:10.793Z,1.77
2019-04-29T02:25:58.054Z,1.47
2019-04-29T02:28:45.515Z,1.65
2019-04-29T02:31:39.875Z,1.92
2019-04-29T02:34:27.040Z,1.70
2019-04-29T02:37:16.186Z,1.70
2019-04-29T02:40:06.486Z,1.55
2019-04-29T02:42:55.265Z,1.62
2019-04-29T02:45:42.503Z,2.00
2019-04-29T02:48:34.230Z,1.50
2019-04-29T02:51:37.199Z,1.65
2019-04-29T02:54:25.965Z,1.85
2019-04-29T02:57:17.899Z,1.45
2019-04-29T03:00:20.217Z,1.82
2019-04-29T03:03:12.045Z,1.92
2019-04-29T03:06:01.123Z,1.90
2019-04-29T03:08:48.408Z,1.65
2019-04-29T03:11:35.436Z,1.67
2019-04-29T03:14:22.815Z,1.60
2019-04-29T03:17:10.614Z,1.55
2019-04-29T03:20:16.297Z,1.57
2019-04-29T03:23:08.721Z,2.30
2019-04-29T03:25:55.936Z,2.12
2019-04-29T03:28:43.471Z,1.92
2019-04-29T03:31:30.417Z,2.22
2019-04-29T03:34:17.905Z,1.75
2019-04-29T03:37:05.296Z,2.20
2019-04-29T03:39:52.721Z,1.98
2019-04-29T03:42:39.678Z,2.00
2019-04-29T03:45:26.525Z,1.87
2019-04-29T03:48:13.686Z,1.85
2019-04-29T03:51:01.038Z,2.00
2019-04-29T03:53:48.308Z,1.87
2019-04-29T03:56:35.172Z,1.95
2019-04-29T03:59:22.349Z,2.33
2019-04-29T04:02:11.620Z,2.30
2019-04-29T04:05:18.495Z,2.05
2019-04-29T04:08:07.382Z,2.13
2019-04-29T04:10:54.639Z,2.10
2019-04-29T04:13:42.074Z,2.27
2019-04-29T04:16:33.976Z,2.22
2019-04-29T04:19:21.942Z,1.87
2019-04-29T04:22:09.077Z,2.10
2019-04-29T04:24:56.633Z,1.70
2019-04-29T04:27:44.264Z,2.00
2019-04-29T04:30:31.154Z,2.15
2019-04-29T04:33:18.009Z,1.90
2019-04-29T04:36:05.376Z,2.10
2019-04-29T04:38:52.910Z,2.45
2019-04-29T04:41:40.103Z,1.98
2019-04-29T04:44:28.900Z,2.20
2019-04-29T04:47:16.807Z,2.15
2019-04-29T04:50:06.236Z,2.10
2019-04-29T04:52:53.057Z,2.33
2019-04-29T04:55:42.084Z,2.12
2019-04-29T04:58:29.341Z,2.40
2019-04-29T05:01:16.980Z,2.40
2019-04-29T05:04:04.103Z,2.35
2019-04-29T05:06:51.370Z,2.67
2019-04-29T05:09:38.904Z,2.83
2019-04-29T05:12:25.999Z,2.20
2019-04-29T05:15:13.606Z,2.60
2019-04-29T05:18:00.946Z,3.02
2019-04-29T05:20:48.051Z,2.75
2019-04-29T05:23:35.279Z,2.90
2019-04-29T05:26:22.239Z,2.90
2019-04-29T05:29:09.177Z,2.62
2019-04-29T05:31:56.528Z,3.08
2019-04-29T05:34:46.361Z,2.80
2019-04-29T05:37:35.891Z,3.05
2019-04-29T05:40:40.993Z,4.20
2019-04-29T05:43:46.502Z,3.75
2019-04-29T05:46:38.409Z,5.70
2019-04-29T05:49:29.779Z,5.47
2019-04-29T05:52:21.664Z,6.00
2019-04-29T05:55:09.476Z,5.78
2019-04-29T05:58:03.076Z,7.00
2019-04-29T06:00:52.780Z,7.10
2019-04-29T06:03:39.954Z,7.22
2019-04-29T06:06:27.495Z,7.05
2019-04-29T06:09:16.738Z,6.97
2019-04-29T06:12:03.442Z,6.95
2019-04-29T06:14:50.367Z,7.83
2019-04-29T06:17:40.163Z,7.12
2019-04-29T06:20:26.930Z,7.37
2019-04-29T06:23:14.016Z,8.00
2019-04-29T06:26:01.366Z,7.45
2019-04-29T06:28:48.871Z,7.67
2019-04-29T06:31:36.175Z,8.03
2019-04-29T06:34:23.420Z,8.00
2019-04-29T06:37:10.997Z,8.88
2019-04-29T06:39:58.092Z,8.98
2019-04-29T06:42:45.309Z,9.80
2019-04-29T06:45:32.473Z,8.73
2019-04-29T06:48:19.842Z,8.80
2019-04-29T06:51:06.780Z,8.45
2019-04-29T06:56:40.367Z,7.12
2019-04-29T06:59:27.708Z,7.55
2019-04-29T07:02:16.091Z,7.90
2019-04-29T07:05:04.488Z,7.72
2019-04-29T07:07:51.824Z,7.65
2019-04-29T07:10:38.778Z,7.60
2019-04-29T07:13:26.289Z,7.70
2019-04-29T07:16:16.854Z,7.12
2019-04-29T07:19:02.815Z,8.08
2019-04-29T07:21:53.975Z,7.62
2019-04-29T07:24:39.219Z,7.22
2019-04-29T07:27:26.714Z,8.45
2019-04-29T07:30:13.891Z,7.30
2019-04-29T07:33:00.831Z,7.47
2019-04-29T07:35:49.321Z,7.28
2019-04-29T07:38:41.477Z,6.67
2019-04-29T07:41:29.130Z,6.83
2019-04-29T07:44:18.371Z,6.35
2019-04-29T07:47:05.147Z,6.33
2019-04-29T07:49:53.079Z,6.67
2019-04-29T07:52:40.326Z,6.30
2019-04-29T07:55:30.984Z,6.25
2019-04-29T07:58:16.620Z,5.85
2019-04-29T08:01:03.939Z,6.30
2019-04-29T08:03:51.097Z,5.70
2019-04-29T08:06:42.650Z,6.08
2019-04-29T08:09:26.984Z,5.47
2019-04-29T08:12:15.180Z,5.20
2019-04-29T08:15:08.624Z,5.72
2019-04-29T08:18:06.457Z,5.00
2019-04-29T08:20:45.574Z,5.28
2019-04-29T08:23:40.904Z,4.87
2019-04-29T08:26:21.892Z,5.08
2019-04-29T08:29:09.263Z,4.78
2019-04-29T08:32:00.036Z,4.70
2019-04-29T08:34:45.619Z,5.00
2019-04-29T08:37:32.599Z,4.67
2019-04-29T08:40:20.333Z,4.10
2019-04-29T08:43:15.837Z,4.12
2019-04-29T08:46:08.138Z,4.95
2019-04-29T08:48:55.647Z,4.75
2019-04-29T08:51:42.725Z,4.55
2019-04-29T08:54:29.647Z,5.00
2019-04-29T08:57:17.129Z,4.78
2019-04-29T09:00:09.634Z,4.10
2019-04-29T09:02:56.916Z,4.55
2019-04-29T09:05:46.192Z,5.10
2019-04-29T09:08:34.560Z,4.67
2019-04-29T09:11:21.831Z,4.22
2019-04-29T09:14:12.722Z,4.20
2019-04-29T09:16:58.552Z,3.80
2019-04-29T09:19:46.013Z,4.65
2019-04-29T09:22:35.069Z,3.95
2019-04-29T09:25:28.027Z,3.30
2019-04-29T09:28:22.422Z,4.12
2019-04-29T09:31:06.087Z,3.80
2019-04-29T09:34:06.119Z,3.60
2019-04-29T09:36:43.906Z,3.30
2019-04-29T09:39:43.058Z,3.95
2019-04-29T09:42:38.627Z,3.12
2019-04-29T09:45:30.478Z,3.60
2019-04-29T09:48:17.933Z,3.67
2019-04-29T09:51:16.688Z,3.30
2019-04-29T09:53:53.926Z,3.72
2019-04-29T09:56:41.322Z,3.45
2019-04-29T09:59:36.290Z,3.40
2019-04-29T10:02:40.772Z,3.50
2019-04-29T10:05:35.811Z,3.72
2019-04-29T10:08:22.733Z,3.60
2019-04-29T10:11:10.316Z,3.83
2019-04-29T10:13:57.533Z,3.70
2019-04-29T10:16:46.725Z,4.00
2019-04-29T10:19:50.584Z,3.12
2019-04-29T10:22:38.176Z,3.35
2019-04-29T10:25:25.592Z,3.25
2019-04-29T10:28:13.026Z,3.70
2019-04-29T10:31:00.277Z,3.12
2019-04-29T10:33:50.125Z,3.70
2019-04-29T10:36:36.732Z,13.43
2019-04-29T10:39:31.595Z,8.50
2019-04-29T10:42:22.958Z,3.42
2019-04-29T10:45:11.467Z,3.17
2019-04-29T10:48:12.889Z,2.80
2019-04-29T10:51:00.805Z,3.30
2019-04-29T10:53:51.134Z,3.05
2019-04-29T10:56:39.424Z,2.77
2019-04-29T10:59:35.719Z,3.17
2019-04-29T11:02:21.900Z,3.20
2019-04-29T11:05:28.435Z,3.22
2019-04-29T11:08:17.196Z,2.92
2019-04-29T11:11:06.220Z,2.87
2019-04-29T11:13:57.471Z,2.87
2019-04-29T11:16:46.573Z,2.60
2019-04-29T11:19:35.030Z,2.50
2019-04-29T11:22:21.584Z,1.70
2019-04-29T11:25:16.376Z,1.42
2019-04-29T11:28:03.484Z,1.80
2019-04-29T11:30:50.807Z,1.60
2019-04-29T11:33:40.025Z,1.52
2019-04-29T11:36:29.294Z,2.45
2019-04-29T11:39:16.879Z,1.98
2019-04-29T11:42:08.587Z,2.10
2019-04-29T11:44:57.090Z,2.37
2019-04-29T11:47:44.712Z,2.05
2019-04-29T11:50:39.395Z,2.25
2019-04-29T11:53:26.802Z,2.33
2019-04-29T11:56:13.927Z,2.17
2019-04-29T11:59:09.043Z,2.40
2019-04-29T12:01:59.821Z,2.10
2019-04-29T12:04:48.559Z,2.00
2019-04-29T12:07:36.110Z,2.05
2019-04-29T12:10:23.383Z,2.10
2019-04-29T12:13:12.115Z,1.98
2019-04-29T12:16:19.808Z,2.02
2019-04-29T12:19:06.708Z,2.20
2019-04-29T12:21:54.564Z,2.12
2019-04-29T12:24:41.610Z,2.27
2019-04-29T12:27:29.264Z,2.00
2019-04-29T12:30:18.585Z,2.05
2019-04-29T12:33:07.412Z,2.42
2019-04-29T12:35:58.573Z,2.00
2019-04-29T12:38:49.669Z,2.10
2019-04-29T12:41:48.148Z,1.90
2019-04-29T12:44:35.324Z,1.60
2019-04-29T12:47:26.677Z,1.95
2019-04-29T12:50:10.102Z,1.82
2019-04-29T12:52:57.036Z,1.87
2019-04-29T12:55:50.300Z,1.62
2019-04-29T12:58:35.428Z,2.10
2019-04-29T13:01:50.219Z,2.35
2019-04-29T13:04:29.817Z,2.20
2019-04-29T13:07:25.039Z,2.20
2019-04-29T13:10:20.032Z,2.20
2019-04-29T13:13:07.492Z,2.27
2019-04-29T13:16:13.321Z,1.92
2019-04-29T13:19:11.888Z,2.55
2019-04-29T13:21:54.019Z,1.85
2019-04-29T13:24:42.661Z,1.90
2019-04-29T13:27:30.409Z,2.67
2019-04-29T13:30:18.147Z,2.40
2019-04-29T13:33:15.532Z,2.17
2019-04-29T13:35:54.625Z,2.30
2019-04-29T13:38:42.555Z,2.10
2019-04-29T13:41:29.969Z,2.25
2019-04-29T13:44:19.666Z,2.20
2019-04-29T13:47:28.410Z,2.33
2019-04-29T13:50:33.847Z,2.15
2019-04-29T13:53:07.152Z,2.40
2019-04-29T13:56:10.315Z,2.80
2019-04-29T13:58:45.184Z,3.00
2019-04-29T14:01:37.924Z,2.67
2019-04-29T14:04:27.497Z,3.17
2019-04-29T14:07:18.259Z,3.00
2019-04-29T14:10:05.245Z,2.67
2019-04-29T14:13:05.033Z,3.02
2019-04-29T14:15:42.837Z,3.05
2019-04-29T14:18:29.879Z,2.70
2019-04-29T14:21:18.189Z,2.85
2019-04-29T14:24:05.532Z,3.33
2019-04-29T14:26:53.054Z,3.58
2019-04-29T14:29:40.942Z,3.72
2019-04-29T14:32:35.877Z,4.08
2019-04-29T14:35:36.996Z,3.67
2019-04-29T14:38:24.771Z,3.72
2019-04-29T14:41:14.190Z,3.25
2019-04-29T14:44:19.522Z,3.50
2019-04-29T14:47:08.239Z,3.15
2019-04-29T14:50:00.559Z,3.20
2019-04-29T14:52:49.341Z,3.25
2019-04-29T14:55:36.417Z,2.98
2019-04-29T14:58:23.826Z,3.00
2019-04-29T15:01:19.037Z,2.87
2019-04-29T15:04:18.071Z,3.00
2019-04-29T15:06:56.553Z,2.80
2019-04-29T15:09:57.808Z,3.08
2019-04-29T15:13:01.585Z,3.33
2019-04-29T15:15:46.739Z,3.72
2019-04-29T15:18:48.514Z,3.87
2019-04-29T15:21:32.832Z,3.70
2019-04-29T15:24:17.876Z,3.77
2019-04-29T15:27:05.774Z,4.20
2019-04-29T15:29:53.163Z,4.05
2019-04-29T15:32:42.813Z,4.12
2019-04-29T15:35:30.864Z,3.67
2019-04-29T15:38:18.177Z,3.62
2019-04-29T15:41:06.569Z,3.62
2019-04-29T15:44:06.538Z,4.70
2019-04-29T15:46:46.884Z,4.22
2019-04-29T15:49:33.324Z,4.65
2019-04-29T15:52:25.295Z,4.60
2019-04-29T15:55:09.812Z,3.67
2019-04-29T15:57:57.843Z,3.65
2019-04-29T16:00:45.097Z,4.40
2019-04-29T16:03:36.829Z,4.40
2019-04-29T16:06:41.347Z,4.08
2019-04-29T16:09:50.605Z,4.08
2019-04-29T16:12:21.439Z,3.90
2019-04-29T16:15:09.746Z,4.25
2019-04-29T16:17:56.954Z,4.83
2019-04-29T16:20:44.447Z,4.42
2019-04-29T16:23:32.723Z,4.70
2019-04-29T16:26:24.858Z,5.20
2019-04-29T16:29:13.217Z,5.58
2019-04-29T16:32:02.326Z,5.70
2019-04-29T16:34:47.221Z,4.83
2019-04-29T16:37:35.055Z,5.15
2019-04-29T16:40:22.593Z,4.97
2019-04-29T16:43:15.092Z,5.37
2019-04-29T16:46:10.524Z,4.92
2019-04-29T16:48:59.290Z,5.10
2019-04-29T16:51:52.835Z,6.37
2019-04-29T16:54:36.925Z,5.72
2019-04-29T16:57:24.460Z,5.30
2019-04-29T17:00:15.763Z,5.28
2019-04-29T17:03:02.782Z,5.33
2019-04-29T17:05:50.487Z,5.35
2019-04-29T17:08:40.235Z,4.95
2019-04-29T17:11:44.506Z,5.20
2019-04-29T17:14:32.634Z,5.53
2019-04-29T17:17:28.613Z,4.92
2019-04-29T17:20:10.585Z,5.60
2019-04-29T17:22:58.041Z,4.70
2019-04-29T17:25:45.819Z,6.58
2019-04-29T17:28:47.785Z,5.70
2019-04-29T17:31:38.135Z,4.72
2019-04-29T17:34:56.674Z,5.58
2019-04-29T17:37:19.984Z,5.00
2019-04-29T17:40:09.117Z,8.08
2019-04-29T17:43:13.822Z,5.65
2019-04-29T17:46:19.665Z,5.40
2019-04-29T17:49:10.132Z,5.58
2019-04-29T17:52:02.805Z,5.78
2019-04-29T17:54:48.180Z,5.60
2019-04-29T17:57:40.913Z,5.78
2019-04-29T18:00:55.591Z,6.30
2019-04-29T18:03:41.371Z,5.45
2019-04-29T18:06:36.314Z,6.05
2019-04-29T18:09:31.976Z,5.65
2019-04-29T18:12:20.775Z,6.42
2019-04-29T18:15:10.754Z,6.30
2019-04-29T18:18:00.354Z,6.55
2019-04-29T18:21:07.075Z,7.72
2019-04-29T18:23:59.555Z,5.85
2019-04-29T18:26:52.882Z,7.03
2019-04-29T18:29:41.755Z,6.78
2019-04-29T18:32:35.704Z,7.75
2019-04-29T18:35:19.507Z,6.45
2019-04-29T18:38:11.424Z,5.47
2019-04-29T18:40:56.485Z,5.55
2019-04-29T18:43:45.198Z,5.92
2019-04-29T18:46:35.043Z,6.50
2019-04-29T18:49:21.476Z,6.35
2019-04-29T18:52:11.433Z,6.30
2019-04-29T18:55:01.074Z,6.00
2019-04-29T18:57:48.831Z,5.47
2019-04-29T19:00:36.459Z,6.22
2019-04-29T19:03:29.812Z,5.78
2019-04-29T19:06:15.135Z,6.67
2019-04-29T19:09:08.249Z,7.10
2019-04-29T19:11:53.200Z,7.08
2019-04-29T19:14:42.139Z,7.62
2019-04-29T19:17:30.827Z,7.75
2019-04-29T19:20:18.829Z,7.62
2019-04-29T19:23:09.942Z,9.65
2019-04-29T19:25:54.925Z,9.23
2019-04-29T19:28:42.746Z,9.88
2019-04-29T19:31:30.157Z,9.95
2019-04-29T19:34:18.797Z,11.03
2019-04-29T19:37:11.872Z,12.03
2019-04-29T19:39:59.665Z,11.12
2019-04-29T19:42:47.211Z,11.90
2019-04-29T19:45:34.465Z,13.83
2019-04-29T19:48:22.543Z,13.60
2019-04-29T19:51:17.397Z,13.48
2019-04-29T19:54:01.651Z,14.93
2019-04-29T19:56:49.424Z,15.00
2019-04-29T19:59:37.226Z,14.68
2019-04-29T20:02:25.860Z,15.23
2019-04-29T20:05:16.483Z,16.75
2019-04-29T20:08:07.053Z,16.52
2019-04-29T20:10:56.506Z,16.20
2019-04-29T20:13:58.349Z,14.70
2019-04-29T20:16:44.835Z,15.40
2019-04-29T20:19:46.206Z,15.55
2019-04-29T20:22:37.491Z,15.55
2019-04-29T20:25:37.645Z,16.80
2019-04-29T20:28:21.295Z,15.98
2019-04-29T20:31:16.379Z,16.10
2019-04-29T20:33:58.541Z,16.10
2019-04-29T20:36:47.610Z,16.85
2019-04-29T20:39:35.817Z,16.05
2019-04-29T20:42:23.488Z,15.55
2019-04-29T20:45:11.751Z,16.17
2019-04-29T20:47:59.250Z,16.23
2019-04-29T20:50:52.562Z,17.27
2019-04-29T20:53:40.268Z,16.70
2019-04-29T20:56:29.892Z,17.10
2019-04-29T20:59:16.278Z,17.20
2019-04-29T21:02:12.600Z,17.87
2019-04-29T21:04:55.865Z,16.37
2019-04-29T21:07:42.790Z,18.15
2019-04-29T21:10:30.568Z,17.48
2019-04-29T21:13:28.347Z,16.67
2019-04-29T21:16:17.403Z,17.37
2019-04-29T21:19:08.463Z,16.65
2019-04-29T21:21:55.137Z,17.65
2019-04-29T21:24:41.947Z,16.95
2019-04-29T21:27:29.447Z,16.35
2019-04-29T21:30:17.388Z,17.05
2019-04-29T21:33:08.307Z,16.55
2019-04-29T21:36:05.337Z,16.77
2019-04-29T21:39:01.969Z,17.07
2019-04-29T21:41:50.675Z,16.95
2019-04-29T21:44:36.696Z,17.37
2019-04-29T21:47:25.956Z,17.37
2019-04-29T21:50:15.323Z,15.63
2019-04-29T21:53:03.460Z,17.17
2019-04-29T21:55:52.053Z,16.75
2019-04-29T21:58:39.727Z,17.10
2019-04-29T22:01:29.417Z,17.37
2019-04-29T22:04:16.347Z,16.00
2019-04-29T22:07:07.942Z,18.10
2019-04-29T22:09:53.272Z,17.23
2019-04-29T22:12:40.730Z,17.12
2019-04-29T22:15:32.869Z,18.05
2019-04-29T22:18:18.124Z,17.27
2019-04-29T22:21:09.779Z,17.12
2019-04-29T22:23:55.309Z,17.90
2019-04-29T22:26:42.552Z,16.82
2019-04-29T22:29:32.042Z,17.95
2019-04-29T22:32:19.471Z,20.00
2019-04-29T22:35:08.646Z,19.98
2019-04-29T22:37:55.644Z,19.55
2019-04-29T22:40:45.150Z,20.70
2019-04-29T22:43:36.110Z,19.07
2019-04-29T22:46:23.252Z,22.05
2019-04-29T22:49:10.466Z,21.10
2019-04-29T22:51:57.671Z,19.85
2019-04-29T22:54:45.783Z,20.08
2019-04-29T22:57:33.497Z,19.98
2019-04-29T23:00:27.923Z,19.98
2019-04-29T23:03:11.179Z,20.45
2019-04-29T23:06:00.115Z,20.12
2019-04-29T23:08:47.719Z,19.75
2019-04-29T23:11:39.365Z,19.67
2019-04-29T23:14:25.210Z,19.48
2019-04-29T23:17:13.353Z,19.80
2019-04-29T23:20:01.865Z,20.05
2019-04-29T23:22:52.641Z,20.82
2019-04-29T23:25:50.640Z,20.37
2019-04-29T23:28:37.775Z,20.48
2019-04-29T23:31:27.237Z,20.15
2019-04-29T23:34:15.435Z,19.42
2019-04-29T23:37:02.652Z,19.35
2019-04-29T23:39:49.647Z,20.50
2019-04-29T23:42:37.156Z,19.25
2019-04-29T23:45:25.251Z,19.20
2019-04-29T23:48:12.816Z,17.80
2019-04-29T23:51:00.013Z,19.87
2019-04-29T23:53:47.595Z,18.60
2019-04-29T23:56:38.568Z,19.48
2019-04-29T23:59:29.577Z,19.12
